sensor_id;sensor_type;location;lat;lon;timestamp;P1;durP1;ratioP1;P2;durP2;ratioP2
8038;SDS011;4062;49.844;8.120;2022-12-29T00:00:06;0.50;;;0.37;;
8038;SDS011;4062;49.844;8.120;2022-12-29T00:02:15;0.50;;;0.30;;
8038;SDS011;4062;49.844;8.120;2022-12-29T00:04:16;0.50;;;0.40;;
8038;SDS011;4062;49.844;8.120;2022-12-29T00:06:17;0.40;;;0.40;;
8038;SDS011;4062;49.844;8.120;2022-12-29T00:08:17;0.50;;;0.40;;
8038;SDS011;4062;49.844;8.120;2022-12-29T00:10:18;0.50;;;0.37;;
8038;SDS011;4062;49.844;8.120;2022-12-29T00:12:18;0.60;;;0.40;;
8038;SDS011;4062;49.844;8.120;2022-12-29T00:14:19;0.50;;;0.37;;
8038;SDS011;4062;49.844;8.120;2022-12-29T00:16:40;0.63;;;0.60;;
8038;SDS011;4062;49.844;8.120;2022-12-29T00:18:44;0.70;;;0.40;;
8038;SDS011;4062;49.844;8.120;2022-12-29T00:20:45;0.63;;;0.40;;
8038;SDS011;4062;49.844;8.120;2022-12-29T00:23:05;0.50;;;0.30;;
8038;SDS011;4062;49.844;8.120;2022-12-29T00:25:26;0.87;;;0.40;;
8038;SDS011;4062;49.844;8.120;2022-12-29T00:27:51;0.60;;;0.40;;
8038;SDS011;4062;49.844;8.120;2022-12-29T00:30:11;0.50;;;0.40;;
8038;SDS011;4062;49.844;8.120;2022-12-29T00:32:31;0.47;;;0.40;;
8038;SDS011;4062;49.844;8.120;2022-12-29T00:34:52;1.00;;;0.50;;
8038;SDS011;4062;49.844;8.120;2022-12-29T00:37:10;0.80;;;0.50;;
8038;SDS011;4062;49.844;8.120;2022-12-29T00:39:14;1.13;;;0.50;;
8038;SDS011;4062;49.844;8.120;2022-12-29T00:41:34;1.43;;;0.70;;
8038;SDS011;4062;49.844;8.120;2022-12-29T00:43:54;0.53;;;0.53;;
8038;SDS011;4062;49.844;8.120;2022-12-29T00:46:09;0.80;;;0.60;;
8038;SDS011;4062;49.844;8.120;2022-12-29T00:48:12;1.00;;;0.50;;
8038;SDS011;4062;49.844;8.120;2022-12-29T00:50:18;0.50;;;0.40;;
8038;SDS011;4062;49.844;8.120;2022-12-29T00:52:19;0.60;;;0.40;;
8038;SDS011;4062;49.844;8.120;2022-12-29T00:54:19;0.80;;;0.52;;
8038;SDS011;4062;49.844;8.120;2022-12-29T00:56:23;0.50;;;0.45;;
8038;SDS011;4062;49.844;8.120;2022-12-29T00:58:23;2.67;;;0.60;;
8038;SDS011;4062;49.844;8.120;2022-12-29T01:00:44;0.50;;;0.40;;
8038;SDS011;4062;49.844;8.120;2022-12-29T01:02:45;0.50;;;0.40;;
8038;SDS011;4062;49.844;8.120;2022-12-29T01:04:45;0.60;;;0.50;;
8038;SDS011;4062;49.844;8.120;2022-12-29T01:07:21;0.70;;;0.40;;
8038;SDS011;4062;49.844;8.120;2022-12-29T01:09:24;0.60;;;0.30;;
8038;SDS011;4062;49.844;8.120;2022-12-29T01:11:49;1.47;;;1.37;;
8038;SDS011;4062;49.844;8.120;2022-12-29T01:13:52;0.50;;;0.40;;
8038;SDS011;4062;49.844;8.120;2022-12-29T01:15:59;1.00;;;0.70;;
8038;SDS011;4062;49.844;8.120;2022-12-29T01:18:08;0.50;;;0.40;;
8038;SDS011;4062;49.844;8.120;2022-12-29T01:20:11;0.90;;;0.73;;
8038;SDS011;4062;49.844;8.120;2022-12-29T01:22:15;0.60;;;0.30;;
8038;SDS011;4062;49.844;8.120;2022-12-29T01:24:15;0.50;;;0.40;;
8038;SDS011;4062;49.844;8.120;2022-12-29T01:26:25;0.70;;;0.50;;
8038;SDS011;4062;49.844;8.120;2022-12-29T01:28:26;0.70;;;0.40;;
8038;SDS011;4062;49.844;8.120;2022-12-29T01:30:30;1.75;;;0.40;;
8038;SDS011;4062;49.844;8.120;2022-12-29T01:32:34;0.40;;;0.30;;
8038;SDS011;4062;49.844;8.120;2022-12-29T01:34:34;1.02;;;0.50;;
8038;SDS011;4062;49.844;8.120;2022-12-29T01:36:40;1.27;;;1.07;;
8038;SDS011;4062;49.844;8.120;2022-12-29T01:38:45;1.80;;;0.50;;
8038;SDS011;4062;49.844;8.120;2022-12-29T01:40:47;0.60;;;0.60;;
8038;SDS011;4062;49.844;8.120;2022-12-29T01:42:54;0.50;;;0.40;;
8038;SDS011;4062;49.844;8.120;2022-12-29T01:44:59;0.93;;;0.40;;
8038;SDS011;4062;49.844;8.120;2022-12-29T01:47:04;0.95;;;0.50;;
8038;SDS011;4062;49.844;8.120;2022-12-29T01:49:07;0.53;;;0.40;;
8038;SDS011;4062;49.844;8.120;2022-12-29T01:51:13;0.50;;;0.40;;
8038;SDS011;4062;49.844;8.120;2022-12-29T01:53:18;1.00;;;0.50;;
8038;SDS011;4062;49.844;8.120;2022-12-29T01:55:19;0.60;;;0.50;;
8038;SDS011;4062;49.844;8.120;2022-12-29T01:57:21;0.50;;;0.40;;
8038;SDS011;4062;49.844;8.120;2022-12-29T01:59:24;0.50;;;0.43;;
8038;SDS011;4062;49.844;8.120;2022-12-29T02:01:25;0.70;;;0.50;;
8038;SDS011;4062;49.844;8.120;2022-12-29T02:03:25;0.60;;;0.50;;
8038;SDS011;4062;49.844;8.120;2022-12-29T02:08:08;1.93;;;0.60;;
8038;SDS011;4062;49.844;8.120;2022-12-29T02:10:09;0.52;;;0.40;;
8038;SDS011;4062;49.844;8.120;2022-12-29T02:12:16;0.80;;;0.43;;
8038;SDS011;4062;49.844;8.120;2022-12-29T02:14:23;1.30;;;0.73;;
8038;SDS011;4062;49.844;8.120;2022-12-29T02:16:28;0.97;;;0.97;;
8038;SDS011;4062;49.844;8.120;2022-12-29T02:27:24;0.57;;;0.57;;
8038;SDS011;4062;49.844;8.120;2022-12-29T02:33:44;1.20;;;0.70;;
8038;SDS011;4062;49.844;8.120;2022-12-29T02:38:22;0.50;;;0.40;;
8038;SDS011;4062;49.844;8.120;2022-12-29T02:40:35;0.70;;;0.40;;
8038;SDS011;4062;49.844;8.120;2022-12-29T02:42:49;0.50;;;0.30;;
8038;SDS011;4062;49.844;8.120;2022-12-29T02:44:52;0.97;;;0.57;;
8038;SDS011;4062;49.844;8.120;2022-12-29T02:46:59;0.87;;;0.43;;
8038;SDS011;4062;49.844;8.120;2022-12-29T02:49:05;1.42;;;0.70;;
8038;SDS011;4062;49.844;8.120;2022-12-29T02:51:11;0.50;;;0.40;;
8038;SDS011;4062;49.844;8.120;2022-12-29T02:53:13;1.07;;;0.70;;
8038;SDS011;4062;49.844;8.120;2022-12-29T02:55:17;0.60;;;0.40;;
8038;SDS011;4062;49.844;8.120;2022-12-29T02:59:27;0.53;;;0.50;;
8038;SDS011;4062;49.844;8.120;2022-12-29T03:03:36;0.60;;;0.40;;
8038;SDS011;4062;49.844;8.120;2022-12-29T03:15:11;0.60;;;0.40;;
8038;SDS011;4062;49.844;8.120;2022-12-29T03:20:07;0.60;;;0.40;;
8038;SDS011;4062;49.844;8.120;2022-12-29T03:22:17;0.50;;;0.40;;
8038;SDS011;4062;49.844;8.120;2022-12-29T03:24:39;0.60;;;0.40;;
8038;SDS011;4062;49.844;8.120;2022-12-29T03:26:43;0.63;;;0.63;;
8038;SDS011;4062;49.844;8.120;2022-12-29T03:28:50;0.50;;;0.40;;
8038;SDS011;4062;49.844;8.120;2022-12-29T03:30:57;0.60;;;0.40;;
8038;SDS011;4062;49.844;8.120;2022-12-29T03:33:11;0.60;;;0.40;;
8038;SDS011;4062;49.844;8.120;2022-12-29T03:35:15;0.60;;;0.40;;
8038;SDS011;4062;49.844;8.120;2022-12-29T03:37:20;0.50;;;0.43;;
8038;SDS011;4062;49.844;8.120;2022-12-29T03:39:28;0.80;;;0.80;;
8038;SDS011;4062;49.844;8.120;2022-12-29T03:41:35;0.50;;;0.50;;
8038;SDS011;4062;49.844;8.120;2022-12-29T03:43:37;0.50;;;0.50;;
8038;SDS011;4062;49.844;8.120;2022-12-29T03:45:38;0.50;;;0.40;;
8038;SDS011;4062;49.844;8.120;2022-12-29T03:47:38;0.50;;;0.40;;
8038;SDS011;4062;49.844;8.120;2022-12-29T03:49:40;0.90;;;0.57;;
8038;SDS011;4062;49.844;8.120;2022-12-29T03:51:50;1.00;;;0.70;;
8038;SDS011;4062;49.844;8.120;2022-12-29T03:53:55;0.50;;;0.40;;
8038;SDS011;4062;49.844;8.120;2022-12-29T03:55:56;0.60;;;0.50;;
8038;SDS011;4062;49.844;8.120;2022-12-29T03:57:57;0.50;;;0.33;;
8038;SDS011;4062;49.844;8.120;2022-12-29T04:00:11;0.50;;;0.50;;
8038;SDS011;4062;49.844;8.120;2022-12-29T04:02:22;0.50;;;0.50;;
8038;SDS011;4062;49.844;8.120;2022-12-29T04:04:23;0.70;;;0.50;;
8038;SDS011;4062;49.844;8.120;2022-12-29T04:06:24;0.57;;;0.50;;
8038;SDS011;4062;49.844;8.120;2022-12-29T04:08:31;0.57;;;0.50;;
8038;SDS011;4062;49.844;8.120;2022-12-29T04:10:32;0.50;;;0.50;;
8038;SDS011;4062;49.844;8.120;2022-12-29T04:12:36;0.80;;;0.70;;
8038;SDS011;4062;49.844;8.120;2022-12-29T04:14:36;2.90;;;0.50;;
8038;SDS011;4062;49.844;8.120;2022-12-29T04:16:37;0.70;;;0.70;;
8038;SDS011;4062;49.844;8.120;2022-12-29T04:18:40;0.50;;;0.40;;
8038;SDS011;4062;49.844;8.120;2022-12-29T04:20:40;0.87;;;0.77;;
8038;SDS011;4062;49.844;8.120;2022-12-29T04:23:00;0.60;;;0.30;;
8038;SDS011;4062;49.844;8.120;2022-12-29T04:25:01;0.50;;;0.40;;
8038;SDS011;4062;49.844;8.120;2022-12-29T04:27:01;0.60;;;0.60;;
8038;SDS011;4062;49.844;8.120;2022-12-29T04:29:04;0.50;;;0.40;;
8038;SDS011;4062;49.844;8.120;2022-12-29T04:31:22;1.40;;;0.50;;
8038;SDS011;4062;49.844;8.120;2022-12-29T04:33:24;0.50;;;0.43;;
8038;SDS011;4062;49.844;8.120;2022-12-29T04:35:25;0.50;;;0.37;;
8038;SDS011;4062;49.844;8.120;2022-12-29T04:37:26;0.60;;;0.40;;
8038;SDS011;4062;49.844;8.120;2022-12-29T04:39:26;0.77;;;0.77;;
8038;SDS011;4062;49.844;8.120;2022-12-29T04:41:27;0.73;;;0.50;;
8038;SDS011;4062;49.844;8.120;2022-12-29T04:43:28;0.50;;;0.50;;
8038;SDS011;4062;49.844;8.120;2022-12-29T04:46:07;2.10;;;0.70;;
8038;SDS011;4062;49.844;8.120;2022-12-29T04:48:16;0.70;;;0.50;;
8038;SDS011;4062;49.844;8.120;2022-12-29T04:50:24;0.40;;;0.30;;
8038;SDS011;4062;49.844;8.120;2022-12-29T04:52:28;0.60;;;0.50;;
8038;SDS011;4062;49.844;8.120;2022-12-29T04:54:29;0.60;;;0.40;;
8038;SDS011;4062;49.844;8.120;2022-12-29T04:56:40;0.60;;;0.40;;
8038;SDS011;4062;49.844;8.120;2022-12-29T04:58:41;0.50;;;0.40;;
8038;SDS011;4062;49.844;8.120;2022-12-29T05:00:41;0.50;;;0.40;;
8038;SDS011;4062;49.844;8.120;2022-12-29T05:02:42;0.60;;;0.40;;
8038;SDS011;4062;49.844;8.120;2022-12-29T05:04:42;0.80;;;0.80;;
8038;SDS011;4062;49.844;8.120;2022-12-29T05:06:43;0.60;;;0.53;;
8038;SDS011;4062;49.844;8.120;2022-12-29T05:08:43;0.70;;;0.40;;
8038;SDS011;4062;49.844;8.120;2022-12-29T05:10:45;0.93;;;0.50;;
8038;SDS011;4062;49.844;8.120;2022-12-29T05:12:46;0.60;;;0.60;;
8038;SDS011;4062;49.844;8.120;2022-12-29T05:14:47;0.50;;;0.50;;
8038;SDS011;4062;49.844;8.120;2022-12-29T05:16:48;0.87;;;0.47;;
8038;SDS011;4062;49.844;8.120;2022-12-29T05:18:50;0.52;;;0.50;;
8038;SDS011;4062;49.844;8.120;2022-12-29T05:20:50;0.60;;;0.40;;
8038;SDS011;4062;49.844;8.120;2022-12-29T05:22:53;1.03;;;0.40;;
8038;SDS011;4062;49.844;8.120;2022-12-29T05:24:53;0.50;;;0.40;;
8038;SDS011;4062;49.844;8.120;2022-12-29T05:26:54;0.97;;;0.40;;
8038;SDS011;4062;49.844;8.120;2022-12-29T05:29:14;0.53;;;0.50;;
8038;SDS011;4062;49.844;8.120;2022-12-29T05:31:14;0.73;;;0.60;;
8038;SDS011;4062;49.844;8.120;2022-12-29T05:33:14;0.50;;;0.40;;
8038;SDS011;4062;49.844;8.120;2022-12-29T05:35:15;0.50;;;0.40;;
8038;SDS011;4062;49.844;8.120;2022-12-29T05:37:16;0.50;;;0.40;;
8038;SDS011;4062;49.844;8.120;2022-12-29T05:39:16;0.50;;;0.30;;
8038;SDS011;4062;49.844;8.120;2022-12-29T05:41:21;0.50;;;0.30;;
8038;SDS011;4062;49.844;8.120;2022-12-29T05:43:42;0.80;;;0.50;;
8038;SDS011;4062;49.844;8.120;2022-12-29T05:46:02;0.50;;;0.30;;
8038;SDS011;4062;49.844;8.120;2022-12-29T05:48:20;0.50;;;0.40;;
8038;SDS011;4062;49.844;8.120;2022-12-29T05:50:39;0.50;;;0.40;;
8038;SDS011;4062;49.844;8.120;2022-12-29T05:52:45;0.77;;;0.60;;
8038;SDS011;4062;49.844;8.120;2022-12-29T05:54:46;0.53;;;0.40;;
8038;SDS011;4062;49.844;8.120;2022-12-29T05:56:50;0.50;;;0.40;;
8038;SDS011;4062;49.844;8.120;2022-12-29T05:58:50;1.00;;;0.57;;
8038;SDS011;4062;49.844;8.120;2022-12-29T06:00:51;0.50;;;0.40;;
8038;SDS011;4062;49.844;8.120;2022-12-29T06:02:51;0.50;;;0.40;;
8038;SDS011;4062;49.844;8.120;2022-12-29T06:04:52;0.50;;;0.40;;
8038;SDS011;4062;49.844;8.120;2022-12-29T06:06:52;0.80;;;0.65;;
8038;SDS011;4062;49.844;8.120;2022-12-29T06:08:59;0.80;;;0.33;;
8038;SDS011;4062;49.844;8.120;2022-12-29T06:11:00;1.02;;;0.57;;
8038;SDS011;4062;49.844;8.120;2022-12-29T06:13:01;0.50;;;0.40;;
8038;SDS011;4062;49.844;8.120;2022-12-29T06:15:01;0.50;;;0.30;;
8038;SDS011;4062;49.844;8.120;2022-12-29T06:17:02;0.60;;;0.50;;
8038;SDS011;4062;49.844;8.120;2022-12-29T06:19:02;0.70;;;0.33;;
8038;SDS011;4062;49.844;8.120;2022-12-29T06:21:04;0.60;;;0.40;;
8038;SDS011;4062;49.844;8.120;2022-12-29T06:23:05;0.67;;;0.40;;
8038;SDS011;4062;49.844;8.120;2022-12-29T06:25:05;0.47;;;0.33;;
8038;SDS011;4062;49.844;8.120;2022-12-29T06:27:08;0.50;;;0.40;;
8038;SDS011;4062;49.844;8.120;2022-12-29T06:29:08;0.50;;;0.30;;
8038;SDS011;4062;49.844;8.120;2022-12-29T06:31:09;0.60;;;0.50;;
8038;SDS011;4062;49.844;8.120;2022-12-29T06:33:10;0.57;;;0.53;;
8038;SDS011;4062;49.844;8.120;2022-12-29T06:35:11;0.50;;;0.40;;
8038;SDS011;4062;49.844;8.120;2022-12-29T06:37:19;0.50;;;0.37;;
8038;SDS011;4062;49.844;8.120;2022-12-29T06:39:20;0.50;;;0.50;;
8038;SDS011;4062;49.844;8.120;2022-12-29T06:41:33;0.83;;;0.40;;
8038;SDS011;4062;49.844;8.120;2022-12-29T06:43:50;0.50;;;0.33;;
8038;SDS011;4062;49.844;8.120;2022-12-29T06:46:14;0.50;;;0.50;;
8038;SDS011;4062;49.844;8.120;2022-12-29T06:48:14;0.60;;;0.50;;
8038;SDS011;4062;49.844;8.120;2022-12-29T06:50:14;2.50;;;0.83;;
8038;SDS011;4062;49.844;8.120;2022-12-29T06:52:15;0.43;;;0.40;;
8038;SDS011;4062;49.844;8.120;2022-12-29T06:54:15;0.50;;;0.40;;
8038;SDS011;4062;49.844;8.120;2022-12-29T06:56:16;0.50;;;0.40;;
8038;SDS011;4062;49.844;8.120;2022-12-29T06:58:16;0.57;;;0.40;;
8038;SDS011;4062;49.844;8.120;2022-12-29T07:00:16;0.97;;;0.70;;
8038;SDS011;4062;49.844;8.120;2022-12-29T07:02:17;0.83;;;0.57;;
8038;SDS011;4062;49.844;8.120;2022-12-29T07:04:20;0.45;;;0.30;;
8038;SDS011;4062;49.844;8.120;2022-12-29T07:06:21;0.50;;;0.40;;
8038;SDS011;4062;49.844;8.120;2022-12-29T07:08:21;0.50;;;0.40;;
8038;SDS011;4062;49.844;8.120;2022-12-29T07:10:21;0.90;;;0.70;;
8038;SDS011;4062;49.844;8.120;2022-12-29T07:12:22;0.50;;;0.40;;
8038;SDS011;4062;49.844;8.120;2022-12-29T07:14:22;0.50;;;0.40;;
8038;SDS011;4062;49.844;8.120;2022-12-29T07:16:23;1.33;;;0.30;;
8038;SDS011;4062;49.844;8.120;2022-12-29T07:18:23;1.27;;;0.50;;
8038;SDS011;4062;49.844;8.120;2022-12-29T07:20:24;0.40;;;0.37;;
8038;SDS011;4062;49.844;8.120;2022-12-29T07:22:24;0.43;;;0.30;;
8038;SDS011;4062;49.844;8.120;2022-12-29T07:24:24;0.50;;;0.40;;
8038;SDS011;4062;49.844;8.120;2022-12-29T07:26:28;0.50;;;0.40;;
8038;SDS011;4062;49.844;8.120;2022-12-29T07:28:28;0.67;;;0.60;;
8038;SDS011;4062;49.844;8.120;2022-12-29T07:30:29;0.45;;;0.30;;
8038;SDS011;4062;49.844;8.120;2022-12-29T07:32:31;0.50;;;0.40;;
8038;SDS011;4062;49.844;8.120;2022-12-29T07:34:32;0.50;;;0.40;;
8038;SDS011;4062;49.844;8.120;2022-12-29T07:36:32;0.50;;;0.30;;
8038;SDS011;4062;49.844;8.120;2022-12-29T07:38:33;0.50;;;0.43;;
8038;SDS011;4062;49.844;8.120;2022-12-29T07:40:33;0.80;;;0.40;;
8038;SDS011;4062;49.844;8.120;2022-12-29T07:42:34;1.83;;;0.80;;
8038;SDS011;4062;49.844;8.120;2022-12-29T07:44:34;0.40;;;0.30;;
8038;SDS011;4062;49.844;8.120;2022-12-29T07:46:49;0.50;;;0.40;;
8038;SDS011;4062;49.844;8.120;2022-12-29T07:48:50;0.90;;;0.50;;
8038;SDS011;4062;49.844;8.120;2022-12-29T07:50:50;0.50;;;0.40;;
8038;SDS011;4062;49.844;8.120;2022-12-29T07:52:51;0.50;;;0.30;;
8038;SDS011;4062;49.844;8.120;2022-12-29T07:54:51;0.50;;;0.40;;
8038;SDS011;4062;49.844;8.120;2022-12-29T07:56:51;0.77;;;0.60;;
8038;SDS011;4062;49.844;8.120;2022-12-29T07:58:52;0.50;;;0.30;;
8038;SDS011;4062;49.844;8.120;2022-12-29T08:00:53;0.73;;;0.67;;
8038;SDS011;4062;49.844;8.120;2022-12-29T08:02:54;0.60;;;0.50;;
8038;SDS011;4062;49.844;8.120;2022-12-29T08:04:54;0.50;;;0.30;;
8038;SDS011;4062;49.844;8.120;2022-12-29T08:06:54;0.50;;;0.47;;
8038;SDS011;4062;49.844;8.120;2022-12-29T08:08:55;0.60;;;0.50;;
8038;SDS011;4062;49.844;8.120;2022-12-29T08:10:56;0.50;;;0.40;;
8038;SDS011;4062;49.844;8.120;2022-12-29T08:12:57;1.27;;;0.57;;
8038;SDS011;4062;49.844;8.120;2022-12-29T08:14:57;0.50;;;0.40;;
8038;SDS011;4062;49.844;8.120;2022-12-29T08:16:58;0.50;;;0.40;;
8038;SDS011;4062;49.844;8.120;2022-12-29T08:18:58;0.50;;;0.50;;
8038;SDS011;4062;49.844;8.120;2022-12-29T08:21:05;0.50;;;0.50;;
8038;SDS011;4062;49.844;8.120;2022-12-29T08:23:05;0.50;;;0.40;;
8038;SDS011;4062;49.844;8.120;2022-12-29T08:25:06;0.50;;;0.40;;
8038;SDS011;4062;49.844;8.120;2022-12-29T08:27:07;0.50;;;0.30;;
8038;SDS011;4062;49.844;8.120;2022-12-29T08:29:07;0.70;;;0.50;;
8038;SDS011;4062;49.844;8.120;2022-12-29T08:31:07;0.60;;;0.40;;
8038;SDS011;4062;49.844;8.120;2022-12-29T08:33:08;8.27;;;0.50;;
8038;SDS011;4062;49.844;8.120;2022-12-29T08:35:08;0.40;;;0.30;;
8038;SDS011;4062;49.844;8.120;2022-12-29T08:37:09;3.43;;;0.83;;
8038;SDS011;4062;49.844;8.120;2022-12-29T08:39:09;1.17;;;0.70;;
8038;SDS011;4062;49.844;8.120;2022-12-29T08:41:09;5.17;;;1.63;;
8038;SDS011;4062;49.844;8.120;2022-12-29T08:43:10;8.27;;;1.07;;
8038;SDS011;4062;49.844;8.120;2022-12-29T08:45:10;1.27;;;0.50;;
8038;SDS011;4062;49.844;8.120;2022-12-29T08:47:11;3.70;;;2.20;;
8038;SDS011;4062;49.844;8.120;2022-12-29T08:49:11;5.95;;;1.00;;
8038;SDS011;4062;49.844;8.120;2022-12-29T08:51:12;0.60;;;0.60;;
8038;SDS011;4062;49.844;8.120;2022-12-29T08:53:12;2.40;;;0.70;;
8038;SDS011;4062;49.844;8.120;2022-12-29T08:55:13;1.10;;;0.70;;
8038;SDS011;4062;49.844;8.120;2022-12-29T08:57:13;1.60;;;0.50;;
8038;SDS011;4062;49.844;8.120;2022-12-29T08:59:24;0.53;;;0.40;;
8038;SDS011;4062;49.844;8.120;2022-12-29T09:01:25;1.02;;;0.50;;
8038;SDS011;4062;49.844;8.120;2022-12-29T09:03:25;1.37;;;0.77;;
8038;SDS011;4062;49.844;8.120;2022-12-29T09:05:26;1.75;;;0.43;;
8038;SDS011;4062;49.844;8.120;2022-12-29T09:07:26;5.40;;;1.63;;
8038;SDS011;4062;49.844;8.120;2022-12-29T09:09:26;12.40;;;1.70;;
8038;SDS011;4062;49.844;8.120;2022-12-29T09:11:27;5.35;;;1.67;;
8038;SDS011;4062;49.844;8.120;2022-12-29T09:13:27;3.90;;;1.87;;
8038;SDS011;4062;49.844;8.120;2022-12-29T09:15:28;6.90;;;2.33;;
8038;SDS011;4062;49.844;8.120;2022-12-29T09:17:28;11.00;;;2.63;;
8038;SDS011;4062;49.844;8.120;2022-12-29T09:19:47;2.13;;;1.60;;
8038;SDS011;4062;49.844;8.120;2022-12-29T09:21:47;6.43;;;1.60;;
8038;SDS011;4062;49.844;8.120;2022-12-29T09:23:47;6.43;;;2.23;;
8038;SDS011;4062;49.844;8.120;2022-12-29T09:25:48;3.83;;;1.27;;
8038;SDS011;4062;49.844;8.120;2022-12-29T09:27:48;6.78;;;1.27;;
8038;SDS011;4062;49.844;8.120;2022-12-29T09:29:49;2.23;;;2.03;;
8038;SDS011;4062;49.844;8.120;2022-12-29T09:31:49;3.87;;;1.03;;
8038;SDS011;4062;49.844;8.120;2022-12-29T09:33:49;4.13;;;0.93;;
8038;SDS011;4062;49.844;8.120;2022-12-29T09:35:51;1.53;;;1.10;;
8038;SDS011;4062;49.844;8.120;2022-12-29T09:37:51;3.00;;;1.17;;
8038;SDS011;4062;49.844;8.120;2022-12-29T09:39:52;2.03;;;1.52;;
8038;SDS011;4062;49.844;8.120;2022-12-29T09:41:57;1.77;;;1.03;;
8038;SDS011;4062;49.844;8.120;2022-12-29T09:48:18;2.40;;;1.10;;
8038;SDS011;4062;49.844;8.120;2022-12-29T09:50:33;1.93;;;1.83;;
8038;SDS011;4062;49.844;8.120;2022-12-29T09:52:36;1.93;;;1.10;;
8038;SDS011;4062;49.844;8.120;2022-12-29T09:56:56;1.20;;;0.85;;
8038;SDS011;4062;49.844;8.120;2022-12-29T09:59:17;1.87;;;1.13;;
8038;SDS011;4062;49.844;8.120;2022-12-29T10:03:20;1.17;;;1.07;;
8038;SDS011;4062;49.844;8.120;2022-12-29T10:07:38;7.23;;;0.93;;
8038;SDS011;4062;49.844;8.120;2022-12-29T10:14:25;1.60;;;1.37;;
8038;SDS011;4062;49.844;8.120;2022-12-29T10:16:32;1.27;;;1.17;;
8038;SDS011;4062;49.844;8.120;2022-12-29T10:18:40;2.30;;;1.33;;
8038;SDS011;4062;49.844;8.120;2022-12-29T10:20:48;1.87;;;1.37;;
8038;SDS011;4062;49.844;8.120;2022-12-29T10:24:50;1.20;;;1.10;;
8038;SDS011;4062;49.844;8.120;2022-12-29T10:26:53;3.13;;;1.00;;
8038;SDS011;4062;49.844;8.120;2022-12-29T10:30:56;1.67;;;1.20;;
8038;SDS011;4062;49.844;8.120;2022-12-29T10:33:00;1.07;;;1.07;;
8038;SDS011;4062;49.844;8.120;2022-12-29T10:35:16;3.00;;;0.80;;
8038;SDS011;4062;49.844;8.120;2022-12-29T10:37:21;7.47;;;1.90;;
8038;SDS011;4062;49.844;8.120;2022-12-29T10:43:49;1.33;;;0.87;;
8038;SDS011;4062;49.844;8.120;2022-12-29T10:45:52;5.90;;;0.80;;
8038;SDS011;4062;49.844;8.120;2022-12-29T10:47:55;4.38;;;0.85;;
8038;SDS011;4062;49.844;8.120;2022-12-29T10:49:57;1.63;;;1.07;;
8038;SDS011;4062;49.844;8.120;2022-12-29T10:52:02;1.60;;;1.50;;
8038;SDS011;4062;49.844;8.120;2022-12-29T10:56:13;1.23;;;0.90;;
8038;SDS011;4062;49.844;8.120;2022-12-29T10:58:15;3.43;;;1.43;;
8038;SDS011;4062;49.844;8.120;2022-12-29T11:00:17;1.03;;;0.83;;
8038;SDS011;4062;49.844;8.120;2022-12-29T11:02:26;1.73;;;1.27;;
8038;SDS011;4062;49.844;8.120;2022-12-29T11:04:53;0.93;;;0.93;;
8038;SDS011;4062;49.844;8.120;2022-12-29T11:06:55;2.50;;;1.20;;
8038;SDS011;4062;49.844;8.120;2022-12-29T11:08:57;2.63;;;1.20;;
8038;SDS011;4062;49.844;8.120;2022-12-29T11:11:05;4.23;;;0.90;;
8038;SDS011;4062;49.844;8.120;2022-12-29T11:13:16;1.93;;;0.90;;
8038;SDS011;4062;49.844;8.120;2022-12-29T11:15:17;2.53;;;1.60;;
8038;SDS011;4062;49.844;8.120;2022-12-29T11:17:17;0.60;;;0.60;;
8038;SDS011;4062;49.844;8.120;2022-12-29T11:19:21;1.13;;;1.00;;
8038;SDS011;4062;49.844;8.120;2022-12-29T11:21:33;1.23;;;0.70;;
8038;SDS011;4062;49.844;8.120;2022-12-29T11:23:38;1.05;;;0.98;;
8038;SDS011;4062;49.844;8.120;2022-12-29T11:25:39;1.73;;;1.03;;
8038;SDS011;4062;49.844;8.120;2022-12-29T11:27:39;2.73;;;0.77;;
8038;SDS011;4062;49.844;8.120;2022-12-29T11:29:54;1.25;;;1.00;;
8038;SDS011;4062;49.844;8.120;2022-12-29T11:31:55;1.40;;;1.30;;
8038;SDS011;4062;49.844;8.120;2022-12-29T11:33:58;0.90;;;0.90;;
8038;SDS011;4062;49.844;8.120;2022-12-29T11:36:06;0.90;;;0.90;;
8038;SDS011;4062;49.844;8.120;2022-12-29T11:38:25;1.00;;;0.80;;
8038;SDS011;4062;49.844;8.120;2022-12-29T11:40:27;1.02;;;0.93;;
8038;SDS011;4062;49.844;8.120;2022-12-29T11:44:37;4.40;;;0.90;;
8038;SDS011;4062;49.844;8.120;2022-12-29T11:46:41;1.00;;;1.00;;
8038;SDS011;4062;49.844;8.120;2022-12-29T11:48:46;0.93;;;0.93;;
8038;SDS011;4062;49.844;8.120;2022-12-29T11:50:52;1.43;;;1.30;;
8038;SDS011;4062;49.844;8.120;2022-12-29T11:53:26;1.00;;;1.00;;
8038;SDS011;4062;49.844;8.120;2022-12-29T11:55:20;0.60;;;0.60;;
8038;SDS011;4062;49.844;8.120;2022-12-29T11:57:22;1.80;;;0.80;;
8038;SDS011;4062;49.844;8.120;2022-12-29T11:59:24;1.00;;;0.80;;
8038;SDS011;4062;49.844;8.120;2022-12-29T12:01:35;2.10;;;1.63;;
8038;SDS011;4062;49.844;8.120;2022-12-29T12:03:38;1.33;;;0.80;;
8038;SDS011;4062;49.844;8.120;2022-12-29T12:06:00;1.10;;;0.53;;
8038;SDS011;4062;49.844;8.120;2022-12-29T12:08:02;0.93;;;0.90;;
8038;SDS011;4062;49.844;8.120;2022-12-29T12:10:06;1.10;;;1.03;;
8038;SDS011;4062;49.844;8.120;2022-12-29T12:12:14;0.93;;;0.70;;
8038;SDS011;4062;49.844;8.120;2022-12-29T12:16:55;0.87;;;0.87;;
8038;SDS011;4062;49.844;8.120;2022-12-29T12:23:36;0.60;;;0.60;;
8038;SDS011;4062;49.844;8.120;2022-12-29T12:25:39;0.70;;;0.63;;
8038;SDS011;4062;49.844;8.120;2022-12-29T12:27:45;0.70;;;0.70;;
8038;SDS011;4062;49.844;8.120;2022-12-29T12:33:50;1.30;;;0.73;;
8038;SDS011;4062;49.844;8.120;2022-12-29T12:36:04;0.50;;;0.50;;
8038;SDS011;4062;49.844;8.120;2022-12-29T12:38:12;0.73;;;0.73;;
8038;SDS011;4062;49.844;8.120;2022-12-29T12:51:01;0.73;;;0.73;;
8038;SDS011;4062;49.844;8.120;2022-12-29T12:53:16;0.50;;;0.50;;
8038;SDS011;4062;49.844;8.120;2022-12-29T13:01:38;0.60;;;0.60;;
8038;SDS011;4062;49.844;8.120;2022-12-29T13:03:56;1.03;;;0.70;;
8038;SDS011;4062;49.844;8.120;2022-12-29T13:06:18;1.17;;;1.07;;
8038;SDS011;4062;49.844;8.120;2022-12-29T13:10:34;0.70;;;0.60;;
8038;SDS011;4062;49.844;8.120;2022-12-29T13:14:42;1.93;;;0.60;;
8038;SDS011;4062;49.844;8.120;2022-12-29T13:23:41;0.50;;;0.50;;
8038;SDS011;4062;49.844;8.120;2022-12-29T13:25:47;1.00;;;0.63;;
8038;SDS011;4062;49.844;8.120;2022-12-29T13:30:15;0.53;;;0.53;;
8038;SDS011;4062;49.844;8.120;2022-12-29T13:36:56;2.07;;;1.00;;
8038;SDS011;4062;49.844;8.120;2022-12-29T13:39:01;1.33;;;1.20;;
8038;SDS011;4062;49.844;8.120;2022-12-29T13:41:07;0.70;;;0.53;;
8038;SDS011;4062;49.844;8.120;2022-12-29T13:43:08;0.67;;;0.60;;
8038;SDS011;4062;49.844;8.120;2022-12-29T13:45:16;1.03;;;0.80;;
8038;SDS011;4062;49.844;8.120;2022-12-29T13:47:35;0.97;;;0.87;;
8038;SDS011;4062;49.844;8.120;2022-12-29T13:49:36;0.67;;;0.50;;
8038;SDS011;4062;49.844;8.120;2022-12-29T13:51:37;0.50;;;0.43;;
8038;SDS011;4062;49.844;8.120;2022-12-29T13:58:08;0.90;;;0.90;;
8038;SDS011;4062;49.844;8.120;2022-12-29T14:00:19;0.67;;;0.60;;
8038;SDS011;4062;49.844;8.120;2022-12-29T14:04:41;0.63;;;0.63;;
8038;SDS011;4062;49.844;8.120;2022-12-29T14:07:05;0.50;;;0.50;;
8038;SDS011;4062;49.844;8.120;2022-12-29T14:09:06;0.53;;;0.50;;
8038;SDS011;4062;49.844;8.120;2022-12-29T14:11:33;0.90;;;0.90;;
8038;SDS011;4062;49.844;8.120;2022-12-29T14:13:37;0.87;;;0.63;;
8038;SDS011;4062;49.844;8.120;2022-12-29T14:15:39;0.50;;;0.50;;
8038;SDS011;4062;49.844;8.120;2022-12-29T14:17:41;0.50;;;0.47;;
8038;SDS011;4062;49.844;8.120;2022-12-29T14:19:43;0.93;;;0.70;;
8038;SDS011;4062;49.844;8.120;2022-12-29T14:28:31;1.10;;;0.50;;
8038;SDS011;4062;49.844;8.120;2022-12-29T14:30:53;0.73;;;0.73;;
8038;SDS011;4062;49.844;8.120;2022-12-29T14:33:00;0.70;;;0.60;;
8038;SDS011;4062;49.844;8.120;2022-12-29T14:35:36;0.60;;;0.60;;
8038;SDS011;4062;49.844;8.120;2022-12-29T14:39:30;1.40;;;0.70;;
8038;SDS011;4062;49.844;8.120;2022-12-29T14:41:35;1.20;;;0.53;;
8038;SDS011;4062;49.844;8.120;2022-12-29T14:43:36;1.23;;;0.60;;
8038;SDS011;4062;49.844;8.120;2022-12-29T14:45:37;0.67;;;0.53;;
8038;SDS011;4062;49.844;8.120;2022-12-29T14:47:41;0.60;;;0.60;;
8038;SDS011;4062;49.844;8.120;2022-12-29T14:49:42;0.50;;;0.50;;
8038;SDS011;4062;49.844;8.120;2022-12-29T14:51:43;1.10;;;0.67;;
8038;SDS011;4062;49.844;8.120;2022-12-29T14:53:45;0.93;;;0.93;;
8038;SDS011;4062;49.844;8.120;2022-12-29T14:55:47;0.60;;;0.50;;
8038;SDS011;4062;49.844;8.120;2022-12-29T14:57:50;1.50;;;0.70;;
8038;SDS011;4062;49.844;8.120;2022-12-29T15:00:02;0.60;;;0.60;;